Etusivu
METAR-TAF:

METAR-TAF

Lentoasemat :

Clines Corners, New Mexico, Yhdysvallat

Leveyspiiri: 35-00N, Pituuspiiri: 105-40W, korkeus merenpinnasta: 2160 m

Tämänhetkinen sää

Tämä raportti tehtiin 26 minuuttia sitten, kello 09.53 UTC
tyyntä
Lämpötila 14°C
Kosteus 100%
Ilmanpaine 1030 hPa
Näkyvyys: 16.1 km
Hajanaisia pilviä 7000 ft:n korkeudessa
Pilvistä 9500 ft:n korkeudessa

METAR: KCQC 210953Z AUTO 00000KT 10SM SCT070 OVC095 14/14 A3041 RMK AO2 SLP208 T01440139 $

Aika: 04:19 (10:19 UTC)


TAF: puuttuu

Säähavainnot ja -ennusteet yli 4000 lentoasemalta (METAR- ja TAF-raportit).

Käytössä olevat sääasemat on merkitty karttaan keltaisilla ja punaisilla pisteillä.

Aseta hiiri pisteen päälle nähdäksesi sääaseman nimen.

Klikkaa sitten nähdäksesi säähavainnot ja -ennusteet.

Kartan vaihtaminen: klikkaa mustalla rastilla varustettuja vihreitä pisteitä, niin voit zoomata sisään; viivalla varustettua vihreää pistettä, niin voit zoomata ulos tai vihreitä nuolia, niin pääset viereisille kartoille.


METAR-TAF: